Terminal Aerodrome Forecast
Issued by NWS Charleston, WV

Current Version | Previous Version | Graphics & Text | Print | Product List | Glossary Off
Versions: 1 2 3 4 5 6 7 8 9 10 11 12 13 14 15 16 17 18 19 20 21 22 23 24

000
FTUS41 KRLX 281951 AAB
TAFCRW
TAF AMD
KCRW 281951Z 2820/2918 20009KT P6SM VCSH SCT030 SCT070 BKN100
      TEMPO 2820/2821 2SM TSRA BKN030CB
     FM290400 22007KT P6SM BKN025
     FM290700 24006KT P6SM BKN015
     FM291200 26005KT P6SM BKN009
     FM291300 26006KT P6SM BKN013
     FM291400 25006KT P6SM SCT020=

USA.gov is the U.S. government's official web portal to all federal, state and local government web resources and services.